createdAt,value
2023-09-04T00:00:57.685Z,2.95
2023-09-04T00:03:00.732Z,2.83
2023-09-04T00:05:03.918Z,2.67
2023-09-04T00:07:06.846Z,3.17
2023-09-04T00:09:10.405Z,2.97
2023-09-04T00:11:13.433Z,3.42
2023-09-04T00:13:16.281Z,3.22
2023-09-04T00:15:19.372Z,3.05
2023-09-04T00:17:23.882Z,2.85
2023-09-04T00:19:26.781Z,3.15
2023-09-04T00:21:29.816Z,2.67
2023-09-04T00:23:32.816Z,2.97
2023-09-04T00:25:36.224Z,2.97
2023-09-04T00:27:39.232Z,3.08
2023-09-04T00:29:42.341Z,3.30
2023-09-04T00:31:45.473Z,3.05
2023-09-04T00:33:50.420Z,3.20
2023-09-04T00:37:56.649Z,2.83
2023-09-04T00:39:59.732Z,2.97
2023-09-04T00:42:02.583Z,2.63
2023-09-04T00:44:06.996Z,2.90
2023-09-04T00:46:10.098Z,3.10
2023-09-04T00:48:13.658Z,3.30
2023-09-04T00:50:23.752Z,2.75
2023-09-04T00:52:27.399Z,2.70
2023-09-04T00:54:30.578Z,2.80
2023-09-04T00:56:33.618Z,2.65
2023-09-04T00:58:36.866Z,2.97
2023-09-04T01:00:40.233Z,2.83
2023-09-04T01:02:43.648Z,2.83
2023-09-04T01:04:46.669Z,2.63
2023-09-04T01:06:52.435Z,2.88
2023-09-04T01:08:57.216Z,2.47
2023-09-04T01:11:08.853Z,2.65
2023-09-04T01:13:18.986Z,3.10
2023-09-04T01:15:22.074Z,2.72
2023-09-04T01:17:25.712Z,3.03
2023-09-04T01:19:29.208Z,2.78
2023-09-04T01:21:37.015Z,2.72
2023-09-04T01:23:39.923Z,2.53
2023-09-04T01:25:50.797Z,2.50
2023-09-04T01:27:59.555Z,3.13
2023-09-04T01:30:11.183Z,3.00
2023-09-04T01:32:20.476Z,2.90
2023-09-04T01:34:27.036Z,2.47
2023-09-04T01:36:32.835Z,2.70
2023-09-04T01:38:37.961Z,2.53
2023-09-04T01:40:40.863Z,3.22
2023-09-04T01:42:43.873Z,2.78
2023-09-04T01:44:46.782Z,2.72
2023-09-04T01:46:50.025Z,2.63
2023-09-04T01:48:53.031Z,2.85
2023-09-04T01:50:56.530Z,2.70
2023-09-04T01:53:00.337Z,2.63
2023-09-04T01:55:05.565Z,2.45
2023-09-04T01:57:08.720Z,2.72
2023-09-04T01:59:11.780Z,2.28
2023-09-04T02:01:16.010Z,2.78
2023-09-04T02:03:19.559Z,2.50
2023-09-04T02:05:22.618Z,2.70
2023-09-04T02:07:25.961Z,2.78
2023-09-04T02:09:28.902Z,2.58
2023-09-04T02:11:34.602Z,2.58
2023-09-04T02:13:37.763Z,2.57
2023-09-04T02:15:41.301Z,2.60
2023-09-04T02:17:44.244Z,2.33
2023-09-04T02:19:47.180Z,2.22
2023-09-04T02:21:50.140Z,2.58
2023-09-04T02:23:53.082Z,2.40
2023-09-04T02:25:55.993Z,2.17
2023-09-04T02:28:00.572Z,2.72
2023-09-04T02:30:08.938Z,2.30
2023-09-04T02:32:11.947Z,2.30
2023-09-04T02:34:16.289Z,2.35
2023-09-04T02:36:19.290Z,2.50
2023-09-04T02:38:23.407Z,2.38
2023-09-04T02:40:26.573Z,2.17
2023-09-04T02:42:30.743Z,2.42
2023-09-04T02:44:35.147Z,2.25
2023-09-04T02:46:38.011Z,2.33
2023-09-04T02:48:41.071Z,2.28
2023-09-04T02:50:44.421Z,2.20
2023-09-04T02:52:47.528Z,2.45
2023-09-04T02:54:50.622Z,2.40
2023-09-04T02:56:53.552Z,2.15
2023-09-04T02:58:56.730Z,2.45
2023-09-04T03:01:01.475Z,2.35
2023-09-04T03:03:05.026Z,2.42
2023-09-04T03:05:10.006Z,1.90
2023-09-04T03:07:14.623Z,2.42
2023-09-04T03:09:17.743Z,2.22
2023-09-04T03:11:21.239Z,2.80
2023-09-04T03:13:24.235Z,2.13
2023-09-04T03:15:27.202Z,1.90
2023-09-04T03:17:33.365Z,1.75
2023-09-04T03:19:36.326Z,2.08
2023-09-04T03:21:39.370Z,2.08
2023-09-04T03:23:42.455Z,2.10
2023-09-04T03:25:45.485Z,2.17
2023-09-04T03:27:48.652Z,2.10
2023-09-04T03:29:53.171Z,2.07
2023-09-04T03:31:56.011Z,1.92
2023-09-04T03:34:03.371Z,2.20
2023-09-04T03:38:10.402Z,2.25
2023-09-04T03:40:20.339Z,1.90
2023-09-04T03:42:24.239Z,1.92
2023-09-04T03:44:28.121Z,2.05
2023-09-04T03:46:31.287Z,2.25
2023-09-04T03:48:34.607Z,2.00
2023-09-04T03:50:40.690Z,2.03
2023-09-04T03:52:44.711Z,1.90
2023-09-04T03:54:48.171Z,2.08
2023-09-04T03:56:51.239Z,2.10
2023-09-04T03:58:55.559Z,1.90
2023-09-04T04:01:01.927Z,2.00
2023-09-04T04:03:05.994Z,2.08
2023-09-04T04:05:11.001Z,2.25
2023-09-04T04:07:16.233Z,2.10
2023-09-04T04:09:24.158Z,1.85
2023-09-04T04:11:28.686Z,1.80
2023-09-04T04:13:31.610Z,2.30
2023-09-04T04:15:34.681Z,2.40
2023-09-04T04:17:38.661Z,1.95
2023-09-04T04:19:41.599Z,2.58
2023-09-04T04:21:44.516Z,1.95
2023-09-04T04:23:49.444Z,2.30
2023-09-04T04:25:52.959Z,2.13
2023-09-04T04:27:56.200Z,1.73
2023-09-04T04:29:59.229Z,2.42
2023-09-04T04:32:08.513Z,2.13
2023-09-04T04:34:12.120Z,1.90
2023-09-04T04:36:15.277Z,2.10
2023-09-04T04:38:18.220Z,1.92
2023-09-04T04:40:24.021Z,2.15
2023-09-04T04:44:31.442Z,2.17
2023-09-04T04:46:34.920Z,1.80
2023-09-04T04:48:38.089Z,2.47
2023-09-04T04:50:41.068Z,2.28
2023-09-04T04:52:44.229Z,2.05
2023-09-04T04:54:47.249Z,2.13
2023-09-04T04:56:51.750Z,2.92
2023-09-04T04:58:54.700Z,1.90
2023-09-04T05:00:57.673Z,2.10
2023-09-04T05:03:00.762Z,2.00
2023-09-04T05:05:06.690Z,2.22
2023-09-04T05:07:09.729Z,1.85
2023-09-04T05:09:14.082Z,1.80
2023-09-04T05:11:17.175Z,2.20
2023-09-04T05:13:21.660Z,2.47
2023-09-04T05:15:24.654Z,1.77
2023-09-04T05:17:27.740Z,2.28
2023-09-04T05:19:31.275Z,2.00
2023-09-04T05:21:42.911Z,2.33
2023-09-04T05:23:54.130Z,2.05
2023-09-04T05:25:57.110Z,1.95
2023-09-04T05:28:00.656Z,2.22
2023-09-04T05:30:06.308Z,1.77
2023-09-04T05:32:09.681Z,1.90
2023-09-04T05:34:12.681Z,2.00
2023-09-04T05:36:15.611Z,2.00
2023-09-04T05:38:18.882Z,2.03
2023-09-04T05:40:21.943Z,1.80
2023-09-04T05:42:24.952Z,1.92
2023-09-04T05:44:27.911Z,2.10
2023-09-04T05:46:33.124Z,2.20
2023-09-04T05:48:36.393Z,2.33
2023-09-04T05:50:39.473Z,2.13
2023-09-04T05:52:42.492Z,2.08
2023-09-04T05:54:45.449Z,2.10
2023-09-04T05:56:48.541Z,2.55
2023-09-04T05:58:53.034Z,2.55
2023-09-04T06:00:56.552Z,2.23
2023-09-04T06:03:01.295Z,2.47
2023-09-04T06:05:04.789Z,2.17
2023-09-04T06:07:08.548Z,2.28
2023-09-04T06:09:11.690Z,2.88
2023-09-04T06:11:14.757Z,2.67
2023-09-04T06:13:18.480Z,2.22
2023-09-04T06:15:21.521Z,2.40
2023-09-04T06:17:24.432Z,2.60
2023-09-04T06:19:29.588Z,2.25
2023-09-04T06:21:32.840Z,2.83
2023-09-04T06:23:35.769Z,2.65
2023-09-04T06:25:41.533Z,2.60
2023-09-04T06:27:44.511Z,2.95
2023-09-04T06:29:47.291Z,2.92
2023-09-04T06:31:50.410Z,2.83
2023-09-04T06:33:53.409Z,3.10
2023-09-04T06:35:57.926Z,3.00
2023-09-04T06:40:05.150Z,3.22
2023-09-04T06:42:08.241Z,3.13
2023-09-04T06:44:14.248Z,3.30
2023-09-04T06:46:17.137Z,2.72
2023-09-04T06:48:20.217Z,3.03
2023-09-04T06:50:23.202Z,2.67
2023-09-04T06:52:27.598Z,2.90
2023-09-04T06:54:30.561Z,3.00
2023-09-04T06:56:33.645Z,2.88
2023-09-04T06:58:37.601Z,3.05
2023-09-04T07:00:40.647Z,2.90
2023-09-04T07:02:43.708Z,2.50
2023-09-04T07:04:46.798Z,3.53
2023-09-04T07:06:49.891Z,2.88
2023-09-04T07:08:57.372Z,2.58
2023-09-04T07:11:00.491Z,2.97
2023-09-04T07:13:03.898Z,3.17
2023-09-04T07:15:08.235Z,2.92
2023-09-04T07:17:11.419Z,3.25
2023-09-04T07:19:14.461Z,2.60
2023-09-04T07:21:17.511Z,2.95
2023-09-04T07:23:22.767Z,3.03
2023-09-04T07:25:27.750Z,2.80
2023-09-04T07:27:30.703Z,3.40
2023-09-04T07:29:34.505Z,3.00
2023-09-04T07:31:37.448Z,3.05
2023-09-04T07:33:40.474Z,3.20
2023-09-04T07:35:43.492Z,3.13
2023-09-04T07:37:46.940Z,3.60
2023-09-04T07:39:50.051Z,3.45
2023-09-04T07:41:56.302Z,3.03
2023-09-04T07:43:59.229Z,3.80
2023-09-04T07:46:03.210Z,2.88
2023-09-04T07:48:07.246Z,3.20
2023-09-04T07:50:11.118Z,3.60
2023-09-04T07:52:14.039Z,3.33
2023-09-04T07:54:17.243Z,3.30
2023-09-04T07:56:21.414Z,3.78
2023-09-04T07:58:26.274Z,3.60
2023-09-04T08:00:29.320Z,3.67
2023-09-04T08:02:32.289Z,3.15
2023-09-04T08:04:35.261Z,3.50
2023-09-04T08:06:38.385Z,3.67
2023-09-04T08:08:41.542Z,3.22
2023-09-04T08:10:46.073Z,3.15
2023-09-04T08:12:49.101Z,3.25
2023-09-04T08:14:53.585Z,2.60
2023-09-04T08:16:56.571Z,3.00
2023-09-04T08:18:59.603Z,2.60
2023-09-04T08:21:03.017Z,2.60
2023-09-04T08:23:08.307Z,2.60
2023-09-04T08:25:11.280Z,2.70
2023-09-04T08:27:14.394Z,2.88
2023-09-04T08:29:17.357Z,2.50
2023-09-04T08:31:24.404Z,2.78
2023-09-04T08:33:28.985Z,2.40
2023-09-04T08:35:33.920Z,2.40
2023-09-04T08:37:36.821Z,2.42
2023-09-04T08:39:39.811Z,2.47
2023-09-04T08:41:43.562Z,2.15
2023-09-04T08:43:49.241Z,2.00
2023-09-04T08:45:53.142Z,2.50
2023-09-04T08:48:02.698Z,2.13
2023-09-04T08:50:06.738Z,2.30
2023-09-04T08:52:10.426Z,2.10
2023-09-04T08:54:14.051Z,2.33
2023-09-04T08:56:18.152Z,2.20
2023-09-04T08:58:21.664Z,2.10
2023-09-04T09:00:24.799Z,2.47
2023-09-04T09:02:28.633Z,2.20
2023-09-04T09:04:35.800Z,2.38
2023-09-04T09:06:38.820Z,2.47
2023-09-04T09:08:45.004Z,2.15
2023-09-04T09:10:48.141Z,2.20
2023-09-04T09:12:51.280Z,2.33
2023-09-04T09:14:54.967Z,2.47
2023-09-04T09:17:05.879Z,2.00
2023-09-04T09:19:10.932Z,2.10
2023-09-04T09:21:27.035Z,2.00
2023-09-04T09:23:31.683Z,2.30
2023-09-04T09:25:36.276Z,2.20
2023-09-04T09:27:39.302Z,2.10
2023-09-04T09:29:44.360Z,2.03
2023-09-04T09:31:47.973Z,2.28
2023-09-04T09:33:51.540Z,2.17
2023-09-04T09:35:55.911Z,2.40
2023-09-04T09:38:00.819Z,2.50
2023-09-04T09:40:07.201Z,2.45
2023-09-04T09:42:10.263Z,2.30
2023-09-04T09:44:13.198Z,2.30
2023-09-04T09:46:19.962Z,2.63
2023-09-04T09:48:27.358Z,2.08
2023-09-04T09:50:30.712Z,2.05
2023-09-04T09:52:33.770Z,2.35
2023-09-04T09:54:39.697Z,2.03
2023-09-04T09:56:43.769Z,2.10
2023-09-04T09:58:48.358Z,2.00
2023-09-04T10:00:51.554Z,2.33
2023-09-04T10:02:55.887Z,2.15
2023-09-04T10:04:59.675Z,2.90
2023-09-04T10:07:04.092Z,2.25
2023-09-04T10:09:09.736Z,2.35
2023-09-04T10:11:15.768Z,2.53
2023-09-04T10:13:23.927Z,2.55
2023-09-04T10:15:28.339Z,2.60
2023-09-04T10:17:36.855Z,2.35
2023-09-04T10:19:43.737Z,2.80
2023-09-04T10:21:53.298Z,2.50
2023-09-04T10:24:04.195Z,2.05
2023-09-04T10:26:10.375Z,2.30
2023-09-04T10:28:29.977Z,2.60
2023-09-04T10:30:45.950Z,2.30
2023-09-04T10:32:50.348Z,2.35
2023-09-04T10:34:53.925Z,2.50
2023-09-04T10:36:57.080Z,2.03
2023-09-04T10:39:01.905Z,2.55
2023-09-04T10:41:06.938Z,2.28
2023-09-04T10:43:11.293Z,2.53
2023-09-04T10:45:17.447Z,2.42
2023-09-04T10:47:21.822Z,2.15
2023-09-04T10:49:32.850Z,2.70
2023-09-04T10:51:37.340Z,2.20
2023-09-04T10:53:40.683Z,1.95
2023-09-04T10:56:13.803Z,2.45
2023-09-04T10:58:16.944Z,2.42
2023-09-04T11:00:30.152Z,2.28
2023-09-04T11:02:35.253Z,2.90
2023-09-04T11:04:51.462Z,2.50
2023-09-04T11:07:27.881Z,2.15
2023-09-04T11:11:37.341Z,2.10
2023-09-04T11:13:45.683Z,2.40
2023-09-04T11:15:55.792Z,2.13
2023-09-04T11:17:59.211Z,2.15
2023-09-04T11:20:02.319Z,1.85
2023-09-04T11:22:05.793Z,1.90
2023-09-04T11:24:09.169Z,2.53
2023-09-04T11:26:12.129Z,2.13
2023-09-04T11:28:15.140Z,2.67
2023-09-04T11:30:18.230Z,2.60
2023-09-04T11:32:22.630Z,2.13
2023-09-04T11:34:26.410Z,1.87
2023-09-04T11:36:29.359Z,2.20
2023-09-04T11:38:33.215Z,2.03
2023-09-04T11:40:37.791Z,2.20
2023-09-04T11:42:41.023Z,1.98
2023-09-04T11:44:44.020Z,2.58
2023-09-04T11:46:47.096Z,2.60
2023-09-04T11:48:52.208Z,2.15
2023-09-04T11:50:56.250Z,2.05
2023-09-04T11:53:00.282Z,2.28
2023-09-04T11:55:03.912Z,2.35
2023-09-04T11:57:07.311Z,2.28
2023-09-04T11:59:10.310Z,2.25
2023-09-04T12:01:13.423Z,2.03
2023-09-04T12:03:16.581Z,2.25
2023-09-04T12:05:21.620Z,2.05
2023-09-04T12:07:24.601Z,2.20
2023-09-04T12:09:27.590Z,2.13
2023-09-04T12:11:31.361Z,2.30
2023-09-04T12:13:34.531Z,1.90
2023-09-04T12:15:39.284Z,2.22
2023-09-04T12:17:42.317Z,2.33
2023-09-04T12:19:45.338Z,2.50
2023-09-04T12:21:49.692Z,2.20
2023-09-04T12:23:55.916Z,2.37
2023-09-04T12:26:00.131Z,2.35
2023-09-04T12:28:05.100Z,2.25
2023-09-04T12:30:12.461Z,2.20
2023-09-04T12:32:15.860Z,2.13
2023-09-04T12:34:26.518Z,2.55
2023-09-04T12:36:31.290Z,2.30
2023-09-04T12:38:36.484Z,2.20
2023-09-04T12:40:40.434Z,2.13
2023-09-04T12:42:44.009Z,1.93
2023-09-04T12:44:46.980Z,1.98
2023-09-04T12:46:50.213Z,2.30
2023-09-04T12:48:53.185Z,2.40
2023-09-04T12:50:56.436Z,2.30
2023-09-04T12:52:59.490Z,2.25
2023-09-04T12:55:05.076Z,2.30
2023-09-04T12:57:08.340Z,2.10
2023-09-04T12:59:11.416Z,2.30
2023-09-04T13:01:14.558Z,2.25
2023-09-04T13:03:17.550Z,2.17
2023-09-04T13:05:21.291Z,2.28
2023-09-04T13:07:25.528Z,2.25
2023-09-04T13:09:28.537Z,2.58
2023-09-04T13:11:33.182Z,2.40
2023-09-04T13:13:36.952Z,2.17
2023-09-04T13:15:40.210Z,2.47
2023-09-04T13:17:43.365Z,2.25
2023-09-04T13:19:46.357Z,2.67
2023-09-04T13:21:49.829Z,2.35
2023-09-04T13:23:52.795Z,2.70
2023-09-04T13:25:55.797Z,2.25
2023-09-04T13:28:00.418Z,2.53
2023-09-04T13:30:03.622Z,2.45
2023-09-04T13:32:08.074Z,2.47
2023-09-04T13:34:11.040Z,2.30
2023-09-04T13:36:14.024Z,2.88
2023-09-04T13:38:17.400Z,2.55
2023-09-04T13:40:20.741Z,2.65
2023-09-04T13:42:24.549Z,2.53
2023-09-04T13:44:29.526Z,2.45
2023-09-04T13:48:36.728Z,2.30
2023-09-04T13:50:41.436Z,2.40
2023-09-04T13:52:44.870Z,2.40
2023-09-04T13:54:48.642Z,2.70
2023-09-04T13:56:54.649Z,2.80
2023-09-04T13:58:57.657Z,2.40
2023-09-04T14:01:02.014Z,2.10
2023-09-04T14:03:05.590Z,2.17
2023-09-04T14:05:09.313Z,2.40
2023-09-04T14:07:12.669Z,2.50
2023-09-04T14:09:15.579Z,1.88
2023-09-04T14:11:20.052Z,2.35
2023-09-04T14:13:23.032Z,2.33
2023-09-04T14:15:26.113Z,2.20
2023-09-04T14:17:30.713Z,2.50
2023-09-04T14:19:33.877Z,2.53
2023-09-04T14:21:37.024Z,2.45
2023-09-04T14:23:41.267Z,2.50
2023-09-04T14:25:49.956Z,2.63
2023-09-04T14:27:53.040Z,2.20
2023-09-04T14:29:57.748Z,2.70
2023-09-04T14:32:00.750Z,2.30
2023-09-04T14:34:05.521Z,2.70
2023-09-04T14:36:08.601Z,2.05
2023-09-04T14:38:11.583Z,2.28
2023-09-04T14:40:14.741Z,2.28
2023-09-04T14:42:17.595Z,2.38
2023-09-04T14:44:20.559Z,2.33
2023-09-04T14:46:24.668Z,2.55
2023-09-04T14:48:27.981Z,2.97
2023-09-04T14:50:33.004Z,2.88
2023-09-04T14:52:36.081Z,2.50
2023-09-04T14:54:39.126Z,2.55
2023-09-04T14:56:42.137Z,2.60
2023-09-04T14:58:45.094Z,2.90
2023-09-04T15:00:50.255Z,2.50
2023-09-04T15:02:53.274Z,2.30
2023-09-04T15:04:56.482Z,2.47
2023-09-04T15:07:00.943Z,2.33
2023-09-04T15:09:04.101Z,2.30
2023-09-04T15:11:14.706Z,1.90
2023-09-04T15:13:19.681Z,2.30
2023-09-04T15:15:22.844Z,2.22
2023-09-04T15:17:25.903Z,2.28
2023-09-04T15:19:29.501Z,2.40
2023-09-04T15:21:32.595Z,2.65
2023-09-04T15:23:37.632Z,2.60
2023-09-04T15:25:40.822Z,2.70
2023-09-04T15:27:43.828Z,2.53
2023-09-04T15:29:46.851Z,2.63
2023-09-04T15:31:49.736Z,2.65
2023-09-04T15:33:52.803Z,2.78
2023-09-04T15:35:56.385Z,2.75
2023-09-04T15:37:59.315Z,2.80
2023-09-04T15:40:06.198Z,2.25
2023-09-04T15:42:13.471Z,2.83
2023-09-04T15:44:16.504Z,3.03
2023-09-04T15:46:20.062Z,2.78
2023-09-04T15:48:23.761Z,2.83
2023-09-04T15:50:27.762Z,2.95
2023-09-04T15:52:30.742Z,2.63
2023-09-04T15:54:33.806Z,2.55
2023-09-04T15:56:38.292Z,2.83
2023-09-04T15:58:41.235Z,2.47
2023-09-04T16:00:44.123Z,2.40
2023-09-04T16:02:47.307Z,2.60
2023-09-04T16:04:50.434Z,2.40
2023-09-04T16:06:53.621Z,2.75
2023-09-04T16:08:56.810Z,2.60
2023-09-04T16:11:01.060Z,2.83
2023-09-04T16:13:05.685Z,2.45
2023-09-04T16:15:09.826Z,2.47
2023-09-04T16:17:14.132Z,2.92
2023-09-04T16:19:17.353Z,2.60
2023-09-04T16:21:20.339Z,2.58
2023-09-04T16:23:23.836Z,2.60
2023-09-04T16:25:29.210Z,2.67
2023-09-04T16:27:32.242Z,2.50
2023-09-04T16:29:36.902Z,2.75
2023-09-04T16:31:40.091Z,2.80
2023-09-04T16:33:43.282Z,2.20
2023-09-04T16:35:46.329Z,2.58
2023-09-04T16:37:49.272Z,2.30
2023-09-04T16:39:52.229Z,3.10
2023-09-04T16:41:55.143Z,2.85
2023-09-04T16:43:58.869Z,2.63
2023-09-04T16:46:04.170Z,2.83
2023-09-04T16:50:11.739Z,2.40
2023-09-04T16:52:14.749Z,2.70
2023-09-04T16:54:17.718Z,3.10
2023-09-04T16:56:20.971Z,2.55
2023-09-04T16:58:24.431Z,2.90
2023-09-04T17:00:27.853Z,2.47
2023-09-04T17:02:32.380Z,3.30
2023-09-04T17:04:35.559Z,2.85
2023-09-04T17:06:38.558Z,3.13
2023-09-04T17:08:41.671Z,2.97
2023-09-04T17:10:44.513Z,2.70
2023-09-04T17:12:47.600Z,2.88
2023-09-04T17:14:50.519Z,2.78
2023-09-04T17:16:53.860Z,2.72
2023-09-04T17:18:58.882Z,2.85
2023-09-04T17:21:02.049Z,2.85
2023-09-04T17:23:06.235Z,2.65
2023-09-04T17:25:10.043Z,2.95
2023-09-04T17:27:13.211Z,2.50
2023-09-04T17:29:16.307Z,3.60
2023-09-04T17:31:19.266Z,3.88
2023-09-04T17:33:22.220Z,3.65
2023-09-04T17:35:26.953Z,4.15
2023-09-04T17:37:29.939Z,4.20
2023-09-04T17:39:33.451Z,3.88
2023-09-04T17:41:37.038Z,4.18
2023-09-04T17:43:40.963Z,4.90
2023-09-04T17:45:49.824Z,5.60
2023-09-04T17:47:52.842Z,5.78
2023-09-04T17:49:55.964Z,6.00
2023-09-04T17:52:00.367Z,5.75
2023-09-04T17:54:03.497Z,5.53
2023-09-04T17:56:06.379Z,5.40
2023-09-04T17:58:09.811Z,5.63
2023-09-04T18:00:13.742Z,4.85
2023-09-04T18:02:16.673Z,4.80
2023-09-04T18:04:20.414Z,4.57
2023-09-04T18:06:23.470Z,4.35
2023-09-04T18:08:28.184Z,4.57
2023-09-04T18:10:31.553Z,4.63
2023-09-04T18:12:34.473Z,4.85
2023-09-04T18:14:37.561Z,4.35
2023-09-04T18:16:40.392Z,4.78
2023-09-04T18:18:43.992Z,4.90
2023-09-04T18:20:46.973Z,4.75
2023-09-04T18:22:50.012Z,4.88
2023-09-04T18:24:55.018Z,5.15
2023-09-04T18:26:59.556Z,5.70
2023-09-04T18:29:02.548Z,5.13
2023-09-04T18:31:13.646Z,5.22
2023-09-04T18:33:16.522Z,5.03
2023-09-04T18:35:22.493Z,4.93
2023-09-04T18:37:25.397Z,4.95
2023-09-04T18:39:28.582Z,5.00
2023-09-04T18:41:32.994Z,5.28
2023-09-04T18:43:36.344Z,5.20
2023-09-04T18:45:44.013Z,5.38
2023-09-04T18:47:47.334Z,5.05
2023-09-04T18:49:52.286Z,5.55
2023-09-04T18:51:56.000Z,4.82
2023-09-04T18:53:58.972Z,4.80
2023-09-04T18:56:02.223Z,5.13
2023-09-04T18:58:06.676Z,5.60
2023-09-04T19:00:13.751Z,5.22
2023-09-04T19:02:16.782Z,5.25
2023-09-04T19:04:19.848Z,5.55
2023-09-04T19:06:23.335Z,5.18
2023-09-04T19:08:26.832Z,4.75
2023-09-04T19:10:29.946Z,4.85
2023-09-04T19:12:33.046Z,4.30
2023-09-04T19:14:37.360Z,4.88
2023-09-04T19:16:40.486Z,4.70
2023-09-04T19:18:43.388Z,4.70
2023-09-04T19:20:48.627Z,4.40
2023-09-04T19:22:51.654Z,4.50
2023-09-04T19:24:54.714Z,5.00
2023-09-04T19:26:57.576Z,4.55
2023-09-04T19:29:00.497Z,4.70
2023-09-04T19:31:04.996Z,4.10
2023-09-04T19:33:08.061Z,4.55
2023-09-04T19:35:11.040Z,4.38
2023-09-04T19:37:14.026Z,4.47
2023-09-04T19:39:17.063Z,4.70
2023-09-04T19:41:20.380Z,4.35
2023-09-04T19:43:23.323Z,4.15
2023-09-04T19:45:26.415Z,4.47
2023-09-04T19:47:30.933Z,3.88
2023-09-04T19:49:33.853Z,4.03
2023-09-04T19:51:36.754Z,4.03
2023-09-04T19:53:39.833Z,4.00
2023-09-04T19:55:42.732Z,3.83
2023-09-04T19:57:45.704Z,3.80
2023-09-04T19:59:48.663Z,4.05
2023-09-04T20:01:51.744Z,4.30
2023-09-04T20:03:56.240Z,4.18
2023-09-04T20:06:00.062Z,3.40
2023-09-04T20:08:03.247Z,3.95
2023-09-04T20:10:07.006Z,4.15
2023-09-04T20:12:10.021Z,4.43
2023-09-04T20:14:13.001Z,4.35
2023-09-04T20:16:17.186Z,4.93
2023-09-04T20:18:20.229Z,4.50
2023-09-04T20:20:24.641Z,4.80
2023-09-04T20:22:27.701Z,4.70
2023-09-04T20:24:30.762Z,4.85
2023-09-04T20:26:48.467Z,4.85
2023-09-04T20:28:57.738Z,4.65
2023-09-04T20:31:01.453Z,4.30
2023-09-04T20:33:05.410Z,4.68
2023-09-04T20:35:10.093Z,4.85
2023-09-04T20:37:15.614Z,4.43
2023-09-04T20:39:18.755Z,4.50
2023-09-04T20:41:21.751Z,4.82
2023-09-04T20:43:25.081Z,4.80
2023-09-04T20:45:28.190Z,4.32
2023-09-04T20:47:35.776Z,4.35
2023-09-04T20:49:41.198Z,3.90
2023-09-04T20:51:44.735Z,4.65
2023-09-04T20:53:49.294Z,4.47
2023-09-04T20:55:52.313Z,4.22
2023-09-04T20:57:55.180Z,4.50
2023-09-04T20:59:58.241Z,4.55
2023-09-04T21:02:01.207Z,4.40
2023-09-04T21:04:04.400Z,4.18
2023-09-04T21:06:08.157Z,4.57
2023-09-04T21:08:11.262Z,4.53
2023-09-04T21:10:16.926Z,4.90
2023-09-04T21:12:38.400Z,4.00
2023-09-04T21:14:59.769Z,4.35
2023-09-04T21:17:21.530Z,4.22
2023-09-04T21:19:43.242Z,4.22
2023-09-04T21:22:05.079Z,4.63
2023-09-04T21:24:26.483Z,4.65
2023-09-04T21:26:49.473Z,4.45
2023-09-04T21:29:10.892Z,3.83
2023-09-04T21:31:32.771Z,4.10
2023-09-04T21:33:54.240Z,4.50
2023-09-04T21:36:15.756Z,4.72
2023-09-04T21:38:37.053Z,4.32
2023-09-04T21:40:58.902Z,4.47
2023-09-04T21:43:22.711Z,4.28
2023-09-04T21:45:44.320Z,3.97
2023-09-04T21:48:05.838Z,3.67
2023-09-04T21:50:27.703Z,4.18
2023-09-04T21:52:49.384Z,4.28
2023-09-04T21:55:10.593Z,5.00
2023-09-04T21:57:32.611Z,4.60
2023-09-04T21:59:55.533Z,4.65
2023-09-04T22:02:17.200Z,4.80
2023-09-04T22:04:38.954Z,4.72
2023-09-04T22:07:00.300Z,4.30
2023-09-04T22:09:23.361Z,5.15
2023-09-04T22:11:45.056Z,5.03
2023-09-04T22:14:06.712Z,4.50
2023-09-04T22:16:30.040Z,4.65
2023-09-04T22:18:51.794Z,5.40
2023-09-04T22:21:14.422Z,5.18
2023-09-04T22:23:36.562Z,4.75
2023-09-04T22:25:57.932Z,4.25
2023-09-04T22:28:19.660Z,4.95
2023-09-04T22:30:41.531Z,4.40
2023-09-04T22:33:04.282Z,4.40
2023-09-04T22:35:25.820Z,4.60
2023-09-04T22:37:47.562Z,5.15
2023-09-04T22:40:08.961Z,5.07
2023-09-04T22:42:30.709Z,5.15
2023-09-04T22:44:52.129Z,5.15
2023-09-04T22:47:14.069Z,4.78
2023-09-04T22:49:37.029Z,4.85
2023-09-04T22:51:58.772Z,5.25
2023-09-04T22:54:20.699Z,4.60
2023-09-04T22:56:42.448Z,5.22
2023-09-04T22:59:03.739Z,4.88
2023-09-04T23:01:28.583Z,4.50
2023-09-04T23:03:50.081Z,4.90
2023-09-04T23:06:13.130Z,4.55
2023-09-04T23:08:35.100Z,4.30
2023-09-04T23:10:57.150Z,4.53
2023-09-04T23:13:18.951Z,4.55
2023-09-04T23:15:40.830Z,4.47
2023-09-04T23:18:02.288Z,4.18
2023-09-04T23:20:24.901Z,3.83
2023-09-04T23:22:32.208Z,3.97
2023-09-04T23:24:39.028Z,4.18
2023-09-04T23:26:42.124Z,3.80
2023-09-04T23:28:48.578Z,4.28
2023-09-04T23:30:55.392Z,4.20
2023-09-04T23:33:21.059Z,4.28
2023-09-04T23:35:41.127Z,4.13
2023-09-04T23:38:04.170Z,4.28
2023-09-04T23:40:26.614Z,4.60
2023-09-04T23:42:48.742Z,4.47
2023-09-04T23:45:10.201Z,4.53
2023-09-04T23:47:15.720Z,4.80
2023-09-04T23:49:18.669Z,4.63
2023-09-04T23:51:24.020Z,4.82
2023-09-04T23:53:28.530Z,4.57
2023-09-04T23:55:35.163Z,4.38
2023-09-04T23:57:38.561Z,4.50
2023-09-04T23:59:41.582Z,4.78
